sensor_id;sensor_type;location;lat;lon;timestamp;P1;durP1;ratioP1;P2;durP2;ratioP2
56893;SDS011;43392;50.078;13.704;2023-06-14T00:01:11;11.85;;;7.65;;
56893;SDS011;43392;50.078;13.704;2023-06-14T00:03:38;11.48;;;7.32;;
56893;SDS011;43392;50.078;13.704;2023-06-14T00:06:05;10.07;;;7.18;;
56893;SDS011;43392;50.078;13.704;2023-06-14T00:08:33;14.27;;;7.78;;
56893;SDS011;43392;50.078;13.704;2023-06-14T00:11:00;11.75;;;7.32;;
56893;SDS011;43392;50.078;13.704;2023-06-14T00:13:26;15.50;;;8.07;;
56893;SDS011;43392;50.078;13.704;2023-06-14T00:15:53;11.55;;;7.80;;
56893;SDS011;43392;50.078;13.704;2023-06-14T00:18:20;11.20;;;7.45;;
56893;SDS011;43392;50.078;13.704;2023-06-14T00:20:49;11.77;;;7.70;;
56893;SDS011;43392;50.078;13.704;2023-06-14T00:23:16;10.35;;;7.55;;
56893;SDS011;43392;50.078;13.704;2023-06-14T00:25:44;9.82;;;7.35;;
56893;SDS011;43392;50.078;13.704;2023-06-14T00:28:10;10.45;;;7.35;;
56893;SDS011;43392;50.078;13.704;2023-06-14T00:30:37;11.88;;;7.72;;
56893;SDS011;43392;50.078;13.704;2023-06-14T00:33:04;14.38;;;8.10;;
56893;SDS011;43392;50.078;13.704;2023-06-14T00:35:30;12.52;;;8.00;;
56893;SDS011;43392;50.078;13.704;2023-06-14T00:37:57;13.82;;;7.90;;
56893;SDS011;43392;50.078;13.704;2023-06-14T00:40:24;11.48;;;7.78;;
56893;SDS011;43392;50.078;13.704;2023-06-14T00:42:52;12.57;;;7.65;;
56893;SDS011;43392;50.078;13.704;2023-06-14T00:45:19;14.30;;;7.57;;
56893;SDS011;43392;50.078;13.704;2023-06-14T00:47:46;11.65;;;7.57;;
56893;SDS011;43392;50.078;13.704;2023-06-14T00:50:13;12.38;;;7.63;;
56893;SDS011;43392;50.078;13.704;2023-06-14T00:52:40;12.80;;;8.23;;
56893;SDS011;43392;50.078;13.704;2023-06-14T00:55:07;10.98;;;7.63;;
56893;SDS011;43392;50.078;13.704;2023-06-14T00:57:34;11.30;;;7.75;;
56893;SDS011;43392;50.078;13.704;2023-06-14T01:00:04;10.15;;;7.47;;
56893;SDS011;43392;50.078;13.704;2023-06-14T01:02:34;12.23;;;8.02;;
56893;SDS011;43392;50.078;13.704;2023-06-14T01:05:01;12.52;;;7.95;;
56893;SDS011;43392;50.078;13.704;2023-06-14T01:07:31;11.18;;;7.80;;
56893;SDS011;43392;50.078;13.704;2023-06-14T01:10:13;12.57;;;8.05;;
56893;SDS011;43392;50.078;13.704;2023-06-14T01:12:50;13.50;;;8.80;;
56893;SDS011;43392;50.078;13.704;2023-06-14T01:15:23;12.32;;;8.50;;
56893;SDS011;43392;50.078;13.704;2023-06-14T01:17:51;12.13;;;8.25;;
56893;SDS011;43392;50.078;13.704;2023-06-14T01:20:19;11.55;;;8.43;;
56893;SDS011;43392;50.078;13.704;2023-06-14T01:22:51;12.18;;;8.43;;
56893;SDS011;43392;50.078;13.704;2023-06-14T01:25:19;13.13;;;8.45;;
56893;SDS011;43392;50.078;13.704;2023-06-14T01:27:48;13.50;;;8.23;;
56893;SDS011;43392;50.078;13.704;2023-06-14T01:30:15;11.93;;;8.48;;
56893;SDS011;43392;50.078;13.704;2023-06-14T01:32:43;12.48;;;8.93;;
56893;SDS011;43392;50.078;13.704;2023-06-14T01:35:11;11.43;;;8.20;;
56893;SDS011;43392;50.078;13.704;2023-06-14T01:37:38;11.48;;;8.00;;
56893;SDS011;43392;50.078;13.704;2023-06-14T01:40:08;11.85;;;8.32;;
56893;SDS011;43392;50.078;13.704;2023-06-14T01:42:37;11.73;;;7.88;;
56893;SDS011;43392;50.078;13.704;2023-06-14T01:45:05;12.02;;;8.32;;
56893;SDS011;43392;50.078;13.704;2023-06-14T01:47:33;12.23;;;8.32;;
56893;SDS011;43392;50.078;13.704;2023-06-14T01:50:00;13.50;;;8.57;;
56893;SDS011;43392;50.078;13.704;2023-06-14T01:52:27;11.80;;;8.40;;
56893;SDS011;43392;50.078;13.704;2023-06-14T01:54:54;13.52;;;8.82;;
56893;SDS011;43392;50.078;13.704;2023-06-14T01:57:22;11.77;;;9.02;;
56893;SDS011;43392;50.078;13.704;2023-06-14T01:59:50;13.07;;;8.60;;
56893;SDS011;43392;50.078;13.704;2023-06-14T02:02:17;11.40;;;8.38;;
56893;SDS011;43392;50.078;13.704;2023-06-14T02:04:43;12.75;;;8.43;;
56893;SDS011;43392;50.078;13.704;2023-06-14T02:07:12;13.63;;;8.18;;
56893;SDS011;43392;50.078;13.704;2023-06-14T02:09:39;12.82;;;8.90;;
56893;SDS011;43392;50.078;13.704;2023-06-14T02:12:06;13.55;;;8.82;;
56893;SDS011;43392;50.078;13.704;2023-06-14T02:14:35;12.98;;;8.63;;
56893;SDS011;43392;50.078;13.704;2023-06-14T02:17:03;11.25;;;8.18;;
56893;SDS011;43392;50.078;13.704;2023-06-14T02:19:31;13.27;;;8.50;;
56893;SDS011;43392;50.078;13.704;2023-06-14T02:21:58;14.52;;;8.18;;
56893;SDS011;43392;50.078;13.704;2023-06-14T02:24:24;14.43;;;8.50;;
56893;SDS011;43392;50.078;13.704;2023-06-14T02:26:51;11.50;;;8.20;;
56893;SDS011;43392;50.078;13.704;2023-06-14T02:29:18;12.35;;;8.45;;
56893;SDS011;43392;50.078;13.704;2023-06-14T02:31:46;10.48;;;7.68;;
56893;SDS011;43392;50.078;13.704;2023-06-14T02:34:13;11.88;;;8.48;;
56893;SDS011;43392;50.078;13.704;2023-06-14T02:36:41;11.02;;;8.02;;
56893;SDS011;43392;50.078;13.704;2023-06-14T02:39:08;13.00;;;8.18;;
56893;SDS011;43392;50.078;13.704;2023-06-14T02:41:35;12.88;;;8.95;;
56893;SDS011;43392;50.078;13.704;2023-06-14T02:44:02;11.82;;;8.05;;
56893;SDS011;43392;50.078;13.704;2023-06-14T02:46:29;11.82;;;8.38;;
56893;SDS011;43392;50.078;13.704;2023-06-14T02:48:57;13.18;;;8.95;;
56893;SDS011;43392;50.078;13.704;2023-06-14T02:51:23;10.50;;;8.15;;
56893;SDS011;43392;50.078;13.704;2023-06-14T02:53:50;12.32;;;8.15;;
56893;SDS011;43392;50.078;13.704;2023-06-14T02:56:16;14.30;;;8.57;;
56893;SDS011;43392;50.078;13.704;2023-06-14T02:58:44;11.30;;;8.60;;
56893;SDS011;43392;50.078;13.704;2023-06-14T03:01:11;14.43;;;8.77;;
56893;SDS011;43392;50.078;13.704;2023-06-14T03:03:39;10.88;;;8.20;;
56893;SDS011;43392;50.078;13.704;2023-06-14T03:06:07;13.10;;;8.24;;
56893;SDS011;43392;50.078;13.704;2023-06-14T03:08:34;14.70;;;8.70;;
56893;SDS011;43392;50.078;13.704;2023-06-14T03:11:04;15.27;;;9.20;;
56893;SDS011;43392;50.078;13.704;2023-06-14T03:13:31;11.90;;;8.68;;
56893;SDS011;43392;50.078;13.704;2023-06-14T03:15:58;12.52;;;8.82;;
56893;SDS011;43392;50.078;13.704;2023-06-14T03:18:27;15.10;;;8.93;;
56893;SDS011;43392;50.078;13.704;2023-06-14T03:20:54;14.60;;;8.45;;
56893;SDS011;43392;50.078;13.704;2023-06-14T03:23:23;10.98;;;7.88;;
56893;SDS011;43392;50.078;13.704;2023-06-14T03:25:50;12.25;;;8.02;;
56893;SDS011;43392;50.078;13.704;2023-06-14T03:28:17;11.98;;;8.63;;
56893;SDS011;43392;50.078;13.704;2023-06-14T03:30:43;11.65;;;7.97;;
56893;SDS011;43392;50.078;13.704;2023-06-14T03:33:10;14.63;;;8.15;;
56893;SDS011;43392;50.078;13.704;2023-06-14T03:35:37;12.95;;;8.05;;
56893;SDS011;43392;50.078;13.704;2023-06-14T03:38:03;12.85;;;7.70;;
56893;SDS011;43392;50.078;13.704;2023-06-14T03:40:31;14.38;;;7.82;;
56893;SDS011;43392;50.078;13.704;2023-06-14T03:42:58;11.90;;;7.65;;
56893;SDS011;43392;50.078;13.704;2023-06-14T03:45:25;15.15;;;7.70;;
56893;SDS011;43392;50.078;13.704;2023-06-14T03:47:51;11.40;;;7.68;;
56893;SDS011;43392;50.078;13.704;2023-06-14T03:50:18;11.82;;;7.63;;
56893;SDS011;43392;50.078;13.704;2023-06-14T03:52:44;12.98;;;8.02;;
56893;SDS011;43392;50.078;13.704;2023-06-14T03:55:11;12.45;;;7.97;;
56893;SDS011;43392;50.078;13.704;2023-06-14T03:57:40;11.82;;;7.97;;
56893;SDS011;43392;50.078;13.704;2023-06-14T04:00:07;15.13;;;7.95;;
56893;SDS011;43392;50.078;13.704;2023-06-14T04:02:36;11.13;;;7.95;;
56893;SDS011;43392;50.078;13.704;2023-06-14T04:05:03;10.48;;;7.30;;
56893;SDS011;43392;50.078;13.704;2023-06-14T04:07:30;12.82;;;8.27;;
56893;SDS011;43392;50.078;13.704;2023-06-14T04:09:57;11.57;;;7.70;;
56893;SDS011;43392;50.078;13.704;2023-06-14T04:12:23;10.05;;;7.15;;
56893;SDS011;43392;50.078;13.704;2023-06-14T04:14:51;11.45;;;7.78;;
56893;SDS011;43392;50.078;13.704;2023-06-14T04:17:18;13.60;;;7.68;;
56893;SDS011;43392;50.078;13.704;2023-06-14T04:19:44;11.38;;;7.32;;
56893;SDS011;43392;50.078;13.704;2023-06-14T04:22:12;11.60;;;7.55;;
56893;SDS011;43392;50.078;13.704;2023-06-14T04:24:39;11.98;;;7.63;;
56893;SDS011;43392;50.078;13.704;2023-06-14T04:27:07;11.80;;;7.63;;
56893;SDS011;43392;50.078;13.704;2023-06-14T04:29:34;12.13;;;7.68;;
56893;SDS011;43392;50.078;13.704;2023-06-14T04:32:02;11.23;;;7.97;;
56893;SDS011;43392;50.078;13.704;2023-06-14T04:34:31;11.90;;;8.65;;
56893;SDS011;43392;50.078;13.704;2023-06-14T04:36:59;14.40;;;9.07;;
56893;SDS011;43392;50.078;13.704;2023-06-14T04:39:26;13.02;;;8.35;;
56893;SDS011;43392;50.078;13.704;2023-06-14T04:41:53;13.57;;;8.50;;
56893;SDS011;43392;50.078;13.704;2023-06-14T04:44:22;12.23;;;7.80;;
56893;SDS011;43392;50.078;13.704;2023-06-14T04:46:55;13.73;;;7.65;;
56893;SDS011;43392;50.078;13.704;2023-06-14T04:49:23;12.38;;;8.43;;
56893;SDS011;43392;50.078;13.704;2023-06-14T04:51:52;12.60;;;8.10;;
56893;SDS011;43392;50.078;13.704;2023-06-14T04:54:22;10.38;;;7.40;;
56893;SDS011;43392;50.078;13.704;2023-06-14T04:56:50;11.20;;;7.85;;
56893;SDS011;43392;50.078;13.704;2023-06-14T04:59:18;12.80;;;7.55;;
56893;SDS011;43392;50.078;13.704;2023-06-14T05:01:45;14.45;;;8.38;;
56893;SDS011;43392;50.078;13.704;2023-06-14T05:04:13;12.27;;;7.07;;
56893;SDS011;43392;50.078;13.704;2023-06-14T05:06:41;12.20;;;7.35;;
56893;SDS011;43392;50.078;13.704;2023-06-14T05:09:09;11.80;;;7.78;;
56893;SDS011;43392;50.078;13.704;2023-06-14T05:11:36;15.93;;;8.25;;
56893;SDS011;43392;50.078;13.704;2023-06-14T05:14:03;11.18;;;7.97;;
56893;SDS011;43392;50.078;13.704;2023-06-14T05:16:31;12.43;;;8.18;;
56893;SDS011;43392;50.078;13.704;2023-06-14T05:18:57;13.43;;;8.75;;
56893;SDS011;43392;50.078;13.704;2023-06-14T05:21:24;11.90;;;8.20;;
56893;SDS011;43392;50.078;13.704;2023-06-14T05:23:52;12.45;;;7.75;;
56893;SDS011;43392;50.078;13.704;2023-06-14T05:26:19;11.50;;;7.50;;
56893;SDS011;43392;50.078;13.704;2023-06-14T05:28:46;11.38;;;8.10;;
56893;SDS011;43392;50.078;13.704;2023-06-14T05:31:12;11.77;;;8.13;;
56893;SDS011;43392;50.078;13.704;2023-06-14T05:33:39;12.00;;;7.53;;
56893;SDS011;43392;50.078;13.704;2023-06-14T05:36:05;10.75;;;7.43;;
56893;SDS011;43392;50.078;13.704;2023-06-14T05:38:32;10.07;;;6.50;;
56893;SDS011;43392;50.078;13.704;2023-06-14T05:41:00;9.70;;;5.70;;
56893;SDS011;43392;50.078;13.704;2023-06-14T05:43:27;8.85;;;6.07;;
56893;SDS011;43392;50.078;13.704;2023-06-14T05:45:53;9.35;;;6.28;;
56893;SDS011;43392;50.078;13.704;2023-06-14T05:48:20;15.02;;;6.40;;
56893;SDS011;43392;50.078;13.704;2023-06-14T05:50:46;10.35;;;6.07;;
56893;SDS011;43392;50.078;13.704;2023-06-14T05:53:13;11.18;;;6.50;;
56893;SDS011;43392;50.078;13.704;2023-06-14T05:55:40;8.68;;;5.95;;
56893;SDS011;43392;50.078;13.704;2023-06-14T05:58:08;10.73;;;6.50;;
56893;SDS011;43392;50.078;13.704;2023-06-14T06:00:35;16.83;;;6.70;;
56893;SDS011;43392;50.078;13.704;2023-06-14T06:03:02;12.43;;;6.80;;
56893;SDS011;43392;50.078;13.704;2023-06-14T06:05:30;10.25;;;6.18;;
56893;SDS011;43392;50.078;13.704;2023-06-14T06:07:56;12.70;;;6.32;;
56893;SDS011;43392;50.078;13.704;2023-06-14T06:10:23;10.05;;;5.93;;
56893;SDS011;43392;50.078;13.704;2023-06-14T06:12:49;13.50;;;6.60;;
56893;SDS011;43392;50.078;13.704;2023-06-14T06:15:18;9.60;;;6.40;;
56893;SDS011;43392;50.078;13.704;2023-06-14T06:17:45;12.57;;;6.72;;
56893;SDS011;43392;50.078;13.704;2023-06-14T06:20:11;11.02;;;6.20;;
56893;SDS011;43392;50.078;13.704;2023-06-14T06:22:38;13.63;;;6.20;;
56893;SDS011;43392;50.078;13.704;2023-06-14T06:25:05;10.25;;;6.05;;
56893;SDS011;43392;50.078;13.704;2023-06-14T06:27:33;10.70;;;6.20;;
56893;SDS011;43392;50.078;13.704;2023-06-14T06:30:01;10.15;;;5.90;;
56893;SDS011;43392;50.078;13.704;2023-06-14T06:32:29;11.20;;;5.85;;
56893;SDS011;43392;50.078;13.704;2023-06-14T06:34:55;10.98;;;6.25;;
56893;SDS011;43392;50.078;13.704;2023-06-14T06:37:22;9.65;;;5.97;;
56893;SDS011;43392;50.078;13.704;2023-06-14T06:39:48;8.32;;;5.47;;
56893;SDS011;43392;50.078;13.704;2023-06-14T06:42:15;8.27;;;5.13;;
56893;SDS011;43392;50.078;13.704;2023-06-14T06:44:42;12.40;;;6.03;;
56893;SDS011;43392;50.078;13.704;2023-06-14T06:47:08;10.35;;;5.70;;
56893;SDS011;43392;50.078;13.704;2023-06-14T06:49:37;9.88;;;5.45;;
56893;SDS011;43392;50.078;13.704;2023-06-14T06:52:04;9.73;;;6.10;;
56893;SDS011;43392;50.078;13.704;2023-06-14T06:54:32;10.45;;;5.55;;
56893;SDS011;43392;50.078;13.704;2023-06-14T06:56:59;9.50;;;5.78;;
56893;SDS011;43392;50.078;13.704;2023-06-14T06:59:26;10.50;;;5.20;;
56893;SDS011;43392;50.078;13.704;2023-06-14T07:01:53;7.60;;;5.05;;
56893;SDS011;43392;50.078;13.704;2023-06-14T07:04:20;9.25;;;4.80;;
56893;SDS011;43392;50.078;13.704;2023-06-14T07:06:48;8.75;;;4.88;;
56893;SDS011;43392;50.078;13.704;2023-06-14T07:09:14;8.60;;;4.90;;
56893;SDS011;43392;50.078;13.704;2023-06-14T07:11:42;9.65;;;5.13;;
56893;SDS011;43392;50.078;13.704;2023-06-14T07:14:09;7.70;;;4.57;;
56893;SDS011;43392;50.078;13.704;2023-06-14T07:16:36;6.65;;;4.25;;
56893;SDS011;43392;50.078;13.704;2023-06-14T07:19:03;10.02;;;4.43;;
56893;SDS011;43392;50.078;13.704;2023-06-14T07:21:30;9.05;;;4.75;;
56893;SDS011;43392;50.078;13.704;2023-06-14T07:23:58;7.63;;;4.43;;
56893;SDS011;43392;50.078;13.704;2023-06-14T07:26:25;9.07;;;4.93;;
56893;SDS011;43392;50.078;13.704;2023-06-14T07:28:52;6.35;;;4.15;;
56893;SDS011;43392;50.078;13.704;2023-06-14T07:31:19;9.02;;;4.32;;
56893;SDS011;43392;50.078;13.704;2023-06-14T07:33:45;8.02;;;4.30;;
56893;SDS011;43392;50.078;13.704;2023-06-14T07:36:12;7.55;;;4.38;;
56893;SDS011;43392;50.078;13.704;2023-06-14T07:38:39;7.82;;;4.15;;
56893;SDS011;43392;50.078;13.704;2023-06-14T07:41:07;6.93;;;4.43;;
56893;SDS011;43392;50.078;13.704;2023-06-14T07:43:34;8.05;;;4.57;;
56893;SDS011;43392;50.078;13.704;2023-06-14T07:46:01;8.40;;;4.43;;
56893;SDS011;43392;50.078;13.704;2023-06-14T07:48:28;12.15;;;4.32;;
56893;SDS011;43392;50.078;13.704;2023-06-14T07:50:54;10.05;;;5.35;;
56893;SDS011;43392;50.078;13.704;2023-06-14T07:53:21;6.93;;;4.30;;
56893;SDS011;43392;50.078;13.704;2023-06-14T07:55:48;13.88;;;4.70;;
56893;SDS011;43392;50.078;13.704;2023-06-14T07:58:17;10.32;;;4.70;;
56893;SDS011;43392;50.078;13.704;2023-06-14T08:00:43;10.20;;;4.32;;
56893;SDS011;43392;50.078;13.704;2023-06-14T08:03:11;8.55;;;4.95;;
56893;SDS011;43392;50.078;13.704;2023-06-14T08:05:37;10.73;;;4.75;;
56893;SDS011;43392;50.078;13.704;2023-06-14T08:08:04;9.77;;;4.70;;
56893;SDS011;43392;50.078;13.704;2023-06-14T08:10:31;8.27;;;4.32;;
56893;SDS011;43392;50.078;13.704;2023-06-14T08:12:57;10.45;;;4.53;;
56893;SDS011;43392;50.078;13.704;2023-06-14T08:15:25;11.57;;;4.68;;
56893;SDS011;43392;50.078;13.704;2023-06-14T08:17:52;10.38;;;4.88;;
56893;SDS011;43392;50.078;13.704;2023-06-14T08:20:19;11.27;;;4.55;;
56893;SDS011;43392;50.078;13.704;2023-06-14T08:22:45;7.60;;;4.82;;
56893;SDS011;43392;50.078;13.704;2023-06-14T08:25:13;10.98;;;4.70;;
56893;SDS011;43392;50.078;13.704;2023-06-14T08:27:40;7.72;;;4.50;;
56893;SDS011;43392;50.078;13.704;2023-06-14T08:30:07;9.90;;;4.55;;
56893;SDS011;43392;50.078;13.704;2023-06-14T08:32:36;7.38;;;4.25;;
56893;SDS011;43392;50.078;13.704;2023-06-14T08:35:03;6.88;;;3.78;;
56893;SDS011;43392;50.078;13.704;2023-06-14T08:37:30;7.82;;;4.15;;
56893;SDS011;43392;50.078;13.704;2023-06-14T08:39:58;10.10;;;4.10;;
56893;SDS011;43392;50.078;13.704;2023-06-14T08:42:25;7.85;;;3.80;;
56893;SDS011;43392;50.078;13.704;2023-06-14T08:44:52;8.40;;;3.83;;
56893;SDS011;43392;50.078;13.704;2023-06-14T08:47:18;7.35;;;3.60;;
56893;SDS011;43392;50.078;13.704;2023-06-14T08:49:47;6.38;;;3.75;;
56893;SDS011;43392;50.078;13.704;2023-06-14T08:52:15;8.50;;;4.03;;
56893;SDS011;43392;50.078;13.704;2023-06-14T08:54:45;7.05;;;3.78;;
56893;SDS011;43392;50.078;13.704;2023-06-14T08:57:13;9.77;;;4.10;;
56893;SDS011;43392;50.078;13.704;2023-06-14T08:59:45;9.27;;;4.20;;
56893;SDS011;43392;50.078;13.704;2023-06-14T09:02:14;6.68;;;3.83;;
56893;SDS011;43392;50.078;13.704;2023-06-14T09:04:43;7.07;;;3.80;;
56893;SDS011;43392;50.078;13.704;2023-06-14T09:07:11;8.80;;;4.22;;
56893;SDS011;43392;50.078;13.704;2023-06-14T09:09:38;6.10;;;3.50;;
56893;SDS011;43392;50.078;13.704;2023-06-14T09:12:06;5.70;;;3.47;;
56893;SDS011;43392;50.078;13.704;2023-06-14T09:17:05;8.75;;;3.78;;
56893;SDS011;43392;50.078;13.704;2023-06-14T09:19:32;8.13;;;4.07;;
56893;SDS011;43392;50.078;13.704;2023-06-14T09:21:59;7.00;;;2.92;;
56893;SDS011;43392;50.078;13.704;2023-06-14T09:24:27;7.20;;;3.78;;
56893;SDS011;43392;50.078;13.704;2023-06-14T09:26:54;7.90;;;3.83;;
56893;SDS011;43392;50.078;13.704;2023-06-14T09:29:22;8.95;;;3.90;;
56893;SDS011;43392;50.078;13.704;2023-06-14T09:31:49;9.05;;;3.97;;
56893;SDS011;43392;50.078;13.704;2023-06-14T09:34:15;5.68;;;3.42;;
56893;SDS011;43392;50.078;13.704;2023-06-14T09:36:43;6.78;;;4.10;;
56893;SDS011;43392;50.078;13.704;2023-06-14T09:39:09;7.40;;;3.78;;
56893;SDS011;43392;50.078;13.704;2023-06-14T09:41:39;8.82;;;4.10;;
56893;SDS011;43392;50.078;13.704;2023-06-14T09:44:08;6.78;;;3.92;;
56893;SDS011;43392;50.078;13.704;2023-06-14T09:46:35;5.80;;;3.20;;
56893;SDS011;43392;50.078;13.704;2023-06-14T09:49:03;7.03;;;3.92;;
56893;SDS011;43392;50.078;13.704;2023-06-14T09:51:31;6.93;;;3.60;;
56893;SDS011;43392;50.078;13.704;2023-06-14T09:53:58;8.68;;;3.90;;
56893;SDS011;43392;50.078;13.704;2023-06-14T09:56:26;6.43;;;3.78;;
56893;SDS011;43392;50.078;13.704;2023-06-14T09:58:56;7.72;;;3.83;;
56893;SDS011;43392;50.078;13.704;2023-06-14T10:01:24;6.68;;;3.58;;
56893;SDS011;43392;50.078;13.704;2023-06-14T10:03:52;9.73;;;3.67;;
56893;SDS011;43392;50.078;13.704;2023-06-14T10:06:25;7.32;;;4.03;;
56893;SDS011;43392;50.078;13.704;2023-06-14T10:08:53;7.78;;;4.10;;
56893;SDS011;43392;50.078;13.704;2023-06-14T10:11:24;8.80;;;4.10;;
56893;SDS011;43392;50.078;13.704;2023-06-14T10:13:51;6.93;;;3.50;;
56893;SDS011;43392;50.078;13.704;2023-06-14T10:16:21;8.07;;;4.10;;
56893;SDS011;43392;50.078;13.704;2023-06-14T10:18:56;7.07;;;3.60;;
56893;SDS011;43392;50.078;13.704;2023-06-14T10:21:31;9.88;;;3.92;;
56893;SDS011;43392;50.078;13.704;2023-06-14T10:24:04;6.25;;;3.75;;
56893;SDS011;43392;50.078;13.704;2023-06-14T10:26:33;10.30;;;4.50;;
56893;SDS011;43392;50.078;13.704;2023-06-14T10:29:00;8.07;;;4.10;;
56893;SDS011;43392;50.078;13.704;2023-06-14T10:31:40;8.02;;;4.00;;
56893;SDS011;43392;50.078;13.704;2023-06-14T10:34:08;6.50;;;3.70;;
56893;SDS011;43392;50.078;13.704;2023-06-14T10:36:35;8.13;;;3.70;;
56893;SDS011;43392;50.078;13.704;2023-06-14T10:39:06;6.40;;;3.92;;
56893;SDS011;43392;50.078;13.704;2023-06-14T10:41:35;6.80;;;3.30;;
56893;SDS011;43392;50.078;13.704;2023-06-14T10:46:59;7.63;;;3.53;;
56893;SDS011;43392;50.078;13.704;2023-06-14T10:49:37;7.13;;;3.35;;
56893;SDS011;43392;50.078;13.704;2023-06-14T10:52:08;7.60;;;4.18;;
56893;SDS011;43392;50.078;13.704;2023-06-14T10:54:55;6.20;;;3.35;;
56893;SDS011;43392;50.078;13.704;2023-06-14T10:57:24;6.47;;;3.95;;
56893;SDS011;43392;50.078;13.704;2023-06-14T10:59:51;6.28;;;4.05;;
56893;SDS011;43392;50.078;13.704;2023-06-14T11:05:28;5.65;;;3.40;;
56893;SDS011;43392;50.078;13.704;2023-06-14T11:07:58;8.90;;;3.80;;
56893;SDS011;43392;50.078;13.704;2023-06-14T11:10:44;6.85;;;3.70;;
56893;SDS011;43392;50.078;13.704;2023-06-14T11:13:11;7.38;;;3.38;;
56893;SDS011;43392;50.078;13.704;2023-06-14T11:15:38;6.90;;;3.35;;
56893;SDS011;43392;50.078;13.704;2023-06-14T11:18:10;7.90;;;3.40;;
56893;SDS011;43392;50.078;13.704;2023-06-14T11:20:39;8.15;;;3.75;;
56893;SDS011;43392;50.078;13.704;2023-06-14T11:23:06;11.82;;;4.13;;
56893;SDS011;43392;50.078;13.704;2023-06-14T11:25:33;9.93;;;3.67;;
56893;SDS011;43392;50.078;13.704;2023-06-14T11:27:59;8.43;;;3.67;;
56893;SDS011;43392;50.078;13.704;2023-06-14T11:30:26;6.40;;;3.40;;
56893;SDS011;43392;50.078;13.704;2023-06-14T11:32:53;11.88;;;3.88;;
56893;SDS011;43392;50.078;13.704;2023-06-14T11:35:22;7.30;;;3.88;;
56893;SDS011;43392;50.078;13.704;2023-06-14T11:37:52;9.95;;;4.03;;
56893;SDS011;43392;50.078;13.704;2023-06-14T11:40:18;10.75;;;3.55;;
56893;SDS011;43392;50.078;13.704;2023-06-14T11:42:45;5.85;;;3.22;;
56893;SDS011;43392;50.078;13.704;2023-06-14T11:45:12;6.30;;;3.40;;
56893;SDS011;43392;50.078;13.704;2023-06-14T11:47:39;5.30;;;3.10;;
56893;SDS011;43392;50.078;13.704;2023-06-14T11:50:06;8.27;;;3.70;;
56893;SDS011;43392;50.078;13.704;2023-06-14T11:52:35;6.65;;;3.35;;
56893;SDS011;43392;50.078;13.704;2023-06-14T11:55:02;6.45;;;3.60;;
56893;SDS011;43392;50.078;13.704;2023-06-14T11:57:30;6.22;;;3.60;;
56893;SDS011;43392;50.078;13.704;2023-06-14T12:00:03;6.47;;;3.22;;
56893;SDS011;43392;50.078;13.704;2023-06-14T12:02:33;6.53;;;3.85;;
56893;SDS011;43392;50.078;13.704;2023-06-14T12:05:03;9.27;;;3.92;;
56893;SDS011;43392;50.078;13.704;2023-06-14T12:07:33;8.73;;;3.63;;
56893;SDS011;43392;50.078;13.704;2023-06-14T12:10:08;6.72;;;3.63;;
56893;SDS011;43392;50.078;13.704;2023-06-14T12:12:36;4.95;;;3.40;;
56893;SDS011;43392;50.078;13.704;2023-06-14T12:15:04;7.25;;;3.78;;
56893;SDS011;43392;50.078;13.704;2023-06-14T12:17:32;7.70;;;3.65;;
56893;SDS011;43392;50.078;13.704;2023-06-14T12:20:04;5.80;;;3.40;;
56893;SDS011;43392;50.078;13.704;2023-06-14T12:22:35;5.38;;;3.13;;
56893;SDS011;43392;50.078;13.704;2023-06-14T12:25:02;4.95;;;3.10;;
56893;SDS011;43392;50.078;13.704;2023-06-14T12:27:30;5.65;;;3.15;;
56893;SDS011;43392;50.078;13.704;2023-06-14T12:29:58;5.22;;;3.13;;
56893;SDS011;43392;50.078;13.704;2023-06-14T12:32:25;6.65;;;3.65;;
56893;SDS011;43392;50.078;13.704;2023-06-14T12:34:52;4.70;;;2.78;;
56893;SDS011;43392;50.078;13.704;2023-06-14T12:37:19;6.45;;;3.60;;
56893;SDS011;43392;50.078;13.704;2023-06-14T12:39:45;5.18;;;2.95;;
56893;SDS011;43392;50.078;13.704;2023-06-14T12:42:12;5.53;;;3.10;;
56893;SDS011;43392;50.078;13.704;2023-06-14T12:44:40;5.72;;;3.13;;
56893;SDS011;43392;50.078;13.704;2023-06-14T12:47:07;5.15;;;3.20;;
56893;SDS011;43392;50.078;13.704;2023-06-14T12:49:34;8.95;;;3.63;;
56893;SDS011;43392;50.078;13.704;2023-06-14T12:52:01;7.65;;;3.53;;
56893;SDS011;43392;50.078;13.704;2023-06-14T12:54:27;5.40;;;3.22;;
56893;SDS011;43392;50.078;13.704;2023-06-14T12:56:54;5.75;;;3.17;;
56893;SDS011;43392;50.078;13.704;2023-06-14T12:59:21;6.57;;;2.97;;
56893;SDS011;43392;50.078;13.704;2023-06-14T13:01:49;5.97;;;3.20;;
56893;SDS011;43392;50.078;13.704;2023-06-14T13:04:15;6.63;;;3.08;;
56893;SDS011;43392;50.078;13.704;2023-06-14T13:06:42;6.20;;;3.47;;
56893;SDS011;43392;50.078;13.704;2023-06-14T13:09:08;7.00;;;3.60;;
56893;SDS011;43392;50.078;13.704;2023-06-14T13:11:36;5.78;;;3.08;;
56893;SDS011;43392;50.078;13.704;2023-06-14T13:14:03;7.72;;;3.63;;
56893;SDS011;43392;50.078;13.704;2023-06-14T13:16:30;7.35;;;3.25;;
56893;SDS011;43392;50.078;13.704;2023-06-14T13:18:58;8.80;;;3.40;;
56893;SDS011;43392;50.078;13.704;2023-06-14T13:21:25;6.82;;;3.22;;
56893;SDS011;43392;50.078;13.704;2023-06-14T13:23:51;7.35;;;3.65;;
56893;SDS011;43392;50.078;13.704;2023-06-14T13:26:18;6.30;;;2.65;;
56893;SDS011;43392;50.078;13.704;2023-06-14T13:28:45;7.65;;;3.20;;
56893;SDS011;43392;50.078;13.704;2023-06-14T13:31:12;4.80;;;2.55;;
56893;SDS011;43392;50.078;13.704;2023-06-14T13:33:38;7.10;;;3.60;;
56893;SDS011;43392;50.078;13.704;2023-06-14T13:36:07;5.68;;;3.13;;
56893;SDS011;43392;50.078;13.704;2023-06-14T13:38:33;5.93;;;3.03;;
56893;SDS011;43392;50.078;13.704;2023-06-14T13:41:00;7.88;;;3.38;;
56893;SDS011;43392;50.078;13.704;2023-06-14T13:43:26;5.32;;;3.20;;
56893;SDS011;43392;50.078;13.704;2023-06-14T13:45:53;5.70;;;3.10;;
56893;SDS011;43392;50.078;13.704;2023-06-14T13:48:20;7.18;;;3.17;;
56893;SDS011;43392;50.078;13.704;2023-06-14T13:50:46;9.68;;;3.10;;
56893;SDS011;43392;50.078;13.704;2023-06-14T13:53:15;9.38;;;3.50;;
56893;SDS011;43392;50.078;13.704;2023-06-14T13:55:41;5.47;;;3.30;;
56893;SDS011;43392;50.078;13.704;2023-06-14T13:58:08;5.88;;;3.40;;
56893;SDS011;43392;50.078;13.704;2023-06-14T14:00:35;6.40;;;3.75;;
56893;SDS011;43392;50.078;13.704;2023-06-14T14:03:05;6.47;;;3.33;;
56893;SDS011;43392;50.078;13.704;2023-06-14T14:05:32;6.10;;;3.45;;
56893;SDS011;43392;50.078;13.704;2023-06-14T14:07:58;7.80;;;3.70;;
56893;SDS011;43392;50.078;13.704;2023-06-14T14:10:26;7.75;;;3.20;;
56893;SDS011;43392;50.078;13.704;2023-06-14T14:12:53;6.07;;;3.70;;
56893;SDS011;43392;50.078;13.704;2023-06-14T14:15:19;6.80;;;3.75;;
56893;SDS011;43392;50.078;13.704;2023-06-14T14:17:46;6.00;;;3.67;;
56893;SDS011;43392;50.078;13.704;2023-06-14T14:20:13;8.60;;;3.97;;
56893;SDS011;43392;50.078;13.704;2023-06-14T14:22:40;7.80;;;3.55;;
56893;SDS011;43392;50.078;13.704;2023-06-14T14:25:07;7.28;;;3.80;;
56893;SDS011;43392;50.078;13.704;2023-06-14T14:27:36;6.57;;;3.40;;
56893;SDS011;43392;50.078;13.704;2023-06-14T14:30:03;6.05;;;3.45;;
56893;SDS011;43392;50.078;13.704;2023-06-14T14:32:30;6.93;;;3.35;;
56893;SDS011;43392;50.078;13.704;2023-06-14T14:34:57;6.30;;;3.55;;
56893;SDS011;43392;50.078;13.704;2023-06-14T14:37:23;6.45;;;3.17;;
56893;SDS011;43392;50.078;13.704;2023-06-14T14:39:50;5.85;;;3.22;;